sensor_id;sensor_type;location;lat;lon;timestamp;P1;durP1;ratioP1;P2;durP2;ratioP2
66327;SDS011;53133;52.862;6.602;2022-11-21T00:00:52;29.23;;;16.77;;
66327;SDS011;53133;52.862;6.602;2022-11-21T00:03:21;28.87;;;16.60;;
66327;SDS011;53133;52.862;6.602;2022-11-21T00:05:48;30.87;;;16.87;;
66327;SDS011;53133;52.862;6.602;2022-11-21T00:08:16;29.07;;;15.83;;
66327;SDS011;53133;52.862;6.602;2022-11-21T00:10:43;30.20;;;16.77;;
66327;SDS011;53133;52.862;6.602;2022-11-21T00:13:16;28.73;;;16.33;;
66327;SDS011;53133;52.862;6.602;2022-11-21T00:15:43;29.20;;;16.67;;
66327;SDS011;53133;52.862;6.602;2022-11-21T00:18:10;28.47;;;16.23;;
66327;SDS011;53133;52.862;6.602;2022-11-21T00:20:36;30.20;;;16.10;;
66327;SDS011;53133;52.862;6.602;2022-11-21T00:23:03;28.47;;;16.37;;
66327;SDS011;53133;52.862;6.602;2022-11-21T00:25:28;28.63;;;16.67;;
66327;SDS011;53133;52.862;6.602;2022-11-21T00:27:54;29.03;;;16.47;;
66327;SDS011;53133;52.862;6.602;2022-11-21T00:30:20;28.83;;;16.57;;
66327;SDS011;53133;52.862;6.602;2022-11-21T00:32:45;28.27;;;15.90;;
66327;SDS011;53133;52.862;6.602;2022-11-21T00:35:11;30.23;;;17.30;;
66327;SDS011;53133;52.862;6.602;2022-11-21T00:37:37;30.13;;;16.70;;
66327;SDS011;53133;52.862;6.602;2022-11-21T00:40:02;31.20;;;16.90;;
66327;SDS011;53133;52.862;6.602;2022-11-21T00:42:28;27.20;;;15.60;;
66327;SDS011;53133;52.862;6.602;2022-11-21T00:44:54;30.93;;;16.27;;
66327;SDS011;53133;52.862;6.602;2022-11-21T00:47:19;26.10;;;16.13;;
66327;SDS011;53133;52.862;6.602;2022-11-21T00:49:45;26.70;;;15.43;;
66327;SDS011;53133;52.862;6.602;2022-11-21T00:52:11;27.03;;;16.53;;
66327;SDS011;53133;52.862;6.602;2022-11-21T00:54:36;27.67;;;16.27;;
66327;SDS011;53133;52.862;6.602;2022-11-21T00:57:02;29.13;;;16.33;;
66327;SDS011;53133;52.862;6.602;2022-11-21T00:59:27;28.20;;;17.47;;
66327;SDS011;53133;52.862;6.602;2022-11-21T01:01:53;28.83;;;17.00;;
66327;SDS011;53133;52.862;6.602;2022-11-21T01:04:18;28.17;;;16.43;;
66327;SDS011;53133;52.862;6.602;2022-11-21T01:06:44;27.73;;;16.67;;
66327;SDS011;53133;52.862;6.602;2022-11-21T01:09:10;28.13;;;17.00;;
66327;SDS011;53133;52.862;6.602;2022-11-21T01:11:35;28.10;;;16.20;;
66327;SDS011;53133;52.862;6.602;2022-11-21T01:14:01;29.93;;;17.03;;
66327;SDS011;53133;52.862;6.602;2022-11-21T01:16:27;30.30;;;16.70;;
66327;SDS011;53133;52.862;6.602;2022-11-21T01:18:53;28.10;;;16.40;;
66327;SDS011;53133;52.862;6.602;2022-11-21T01:21:23;27.87;;;15.83;;
66327;SDS011;53133;52.862;6.602;2022-11-21T01:23:53;31.27;;;16.47;;
66327;SDS011;53133;52.862;6.602;2022-11-21T01:26:20;29.27;;;17.10;;
66327;SDS011;53133;52.862;6.602;2022-11-21T01:28:47;28.67;;;16.67;;
66327;SDS011;53133;52.862;6.602;2022-11-21T01:31:15;29.07;;;16.63;;
66327;SDS011;53133;52.862;6.602;2022-11-21T01:33:42;26.57;;;16.10;;
66327;SDS011;53133;52.862;6.602;2022-11-21T01:36:09;29.97;;;16.87;;
66327;SDS011;53133;52.862;6.602;2022-11-21T01:38:37;27.03;;;16.37;;
66327;SDS011;53133;52.862;6.602;2022-11-21T01:41:04;29.90;;;16.53;;
66327;SDS011;53133;52.862;6.602;2022-11-21T01:43:30;28.00;;;16.90;;
66327;SDS011;53133;52.862;6.602;2022-11-21T01:46:04;34.10;;;17.30;;
66327;SDS011;53133;52.862;6.602;2022-11-21T01:48:36;29.27;;;17.17;;
66327;SDS011;53133;52.862;6.602;2022-11-21T01:53:46;28.93;;;16.00;;
66327;SDS011;53133;52.862;6.602;2022-11-21T01:56:22;27.63;;;15.87;;
66327;SDS011;53133;52.862;6.602;2022-11-21T01:58:49;29.87;;;17.30;;
66327;SDS011;53133;52.862;6.602;2022-11-21T02:03:47;28.20;;;16.53;;
66327;SDS011;53133;52.862;6.602;2022-11-21T02:06:13;29.27;;;16.40;;
66327;SDS011;53133;52.862;6.602;2022-11-21T02:08:39;31.83;;;17.10;;
66327;SDS011;53133;52.862;6.602;2022-11-21T02:11:11;31.20;;;17.17;;
66327;SDS011;53133;52.862;6.602;2022-11-21T02:13:45;28.50;;;16.47;;
66327;SDS011;53133;52.862;6.602;2022-11-21T02:16:10;29.10;;;17.20;;
66327;SDS011;53133;52.862;6.602;2022-11-21T02:18:36;29.10;;;16.77;;
66327;SDS011;53133;52.862;6.602;2022-11-21T02:21:07;32.10;;;17.67;;
66327;SDS011;53133;52.862;6.602;2022-11-21T02:26:36;26.90;;;16.27;;
66327;SDS011;53133;52.862;6.602;2022-11-21T02:29:02;29.10;;;16.97;;
66327;SDS011;53133;52.862;6.602;2022-11-21T02:31:27;30.53;;;17.60;;
66327;SDS011;53133;52.862;6.602;2022-11-21T02:33:53;27.53;;;15.40;;
66327;SDS011;53133;52.862;6.602;2022-11-21T02:36:36;32.30;;;17.00;;
66327;SDS011;53133;52.862;6.602;2022-11-21T02:39:08;25.50;;;14.93;;
66327;SDS011;53133;52.862;6.602;2022-11-21T02:41:59;27.53;;;15.93;;
66327;SDS011;53133;52.862;6.602;2022-11-21T02:47:21;26.13;;;15.73;;
66327;SDS011;53133;52.862;6.602;2022-11-21T02:49:49;28.33;;;16.27;;
66327;SDS011;53133;52.862;6.602;2022-11-21T02:52:22;27.70;;;16.43;;
66327;SDS011;53133;52.862;6.602;2022-11-21T02:54:47;27.10;;;16.70;;
66327;SDS011;53133;52.862;6.602;2022-11-21T02:57:13;29.03;;;15.90;;
66327;SDS011;53133;52.862;6.602;2022-11-21T02:59:38;28.03;;;16.23;;
66327;SDS011;53133;52.862;6.602;2022-11-21T03:02:04;28.50;;;16.97;;
66327;SDS011;53133;52.862;6.602;2022-11-21T03:04:30;27.63;;;16.00;;
66327;SDS011;53133;52.862;6.602;2022-11-21T03:06:55;28.93;;;16.27;;
66327;SDS011;53133;52.862;6.602;2022-11-21T03:09:23;26.20;;;15.37;;
66327;SDS011;53133;52.862;6.602;2022-11-21T03:11:49;26.50;;;16.07;;
66327;SDS011;53133;52.862;6.602;2022-11-21T03:14:14;26.07;;;15.20;;
66327;SDS011;53133;52.862;6.602;2022-11-21T03:16:40;29.37;;;17.27;;
66327;SDS011;53133;52.862;6.602;2022-11-21T03:19:05;27.77;;;15.97;;
66327;SDS011;53133;52.862;6.602;2022-11-21T03:21:31;28.47;;;16.43;;
66327;SDS011;53133;52.862;6.602;2022-11-21T03:23:56;29.67;;;16.60;;
66327;SDS011;53133;52.862;6.602;2022-11-21T03:26:22;31.17;;;16.87;;
66327;SDS011;53133;52.862;6.602;2022-11-21T03:28:48;30.43;;;17.10;;
66327;SDS011;53133;52.862;6.602;2022-11-21T03:31:13;28.23;;;15.47;;
66327;SDS011;53133;52.862;6.602;2022-11-21T03:33:39;25.07;;;15.00;;
66327;SDS011;53133;52.862;6.602;2022-11-21T03:36:04;26.47;;;15.57;;
66327;SDS011;53133;52.862;6.602;2022-11-21T03:38:30;29.30;;;16.63;;
66327;SDS011;53133;52.862;6.602;2022-11-21T03:40:55;27.53;;;15.30;;
66327;SDS011;53133;52.862;6.602;2022-11-21T03:43:21;27.70;;;14.87;;
66327;SDS011;53133;52.862;6.602;2022-11-21T03:45:47;29.33;;;16.07;;
66327;SDS011;53133;52.862;6.602;2022-11-21T03:48:13;30.37;;;16.47;;
66327;SDS011;53133;52.862;6.602;2022-11-21T03:50:42;29.60;;;16.13;;
66327;SDS011;53133;52.862;6.602;2022-11-21T03:53:08;27.37;;;16.03;;
66327;SDS011;53133;52.862;6.602;2022-11-21T03:55:34;29.50;;;16.37;;
66327;SDS011;53133;52.862;6.602;2022-11-21T03:58:00;30.33;;;17.40;;
66327;SDS011;53133;52.862;6.602;2022-11-21T04:00:25;28.33;;;17.00;;
66327;SDS011;53133;52.862;6.602;2022-11-21T04:02:51;32.27;;;17.87;;
66327;SDS011;53133;52.862;6.602;2022-11-21T04:05:16;34.43;;;17.90;;
66327;SDS011;53133;52.862;6.602;2022-11-21T04:07:42;30.93;;;18.10;;
66327;SDS011;53133;52.862;6.602;2022-11-21T04:10:09;33.77;;;17.40;;
66327;SDS011;53133;52.862;6.602;2022-11-21T04:12:34;29.13;;;16.53;;
66327;SDS011;53133;52.862;6.602;2022-11-21T04:15:00;29.43;;;15.93;;
66327;SDS011;53133;52.862;6.602;2022-11-21T04:17:25;28.37;;;16.93;;
66327;SDS011;53133;52.862;6.602;2022-11-21T04:19:51;28.80;;;15.87;;
66327;SDS011;53133;52.862;6.602;2022-11-21T04:22:16;29.37;;;16.63;;
66327;SDS011;53133;52.862;6.602;2022-11-21T04:24:45;27.53;;;16.53;;
66327;SDS011;53133;52.862;6.602;2022-11-21T04:27:10;27.77;;;17.17;;
66327;SDS011;53133;52.862;6.602;2022-11-21T04:29:36;29.47;;;16.67;;
66327;SDS011;53133;52.862;6.602;2022-11-21T04:32:01;28.50;;;16.50;;
66327;SDS011;53133;52.862;6.602;2022-11-21T04:34:27;29.60;;;16.57;;
66327;SDS011;53133;52.862;6.602;2022-11-21T04:36:53;27.80;;;16.50;;
66327;SDS011;53133;52.862;6.602;2022-11-21T04:39:18;30.97;;;16.73;;
66327;SDS011;53133;52.862;6.602;2022-11-21T04:41:44;32.10;;;16.73;;
66327;SDS011;53133;52.862;6.602;2022-11-21T04:44:09;30.50;;;16.10;;
66327;SDS011;53133;52.862;6.602;2022-11-21T04:46:35;29.47;;;16.47;;
66327;SDS011;53133;52.862;6.602;2022-11-21T04:49:00;29.90;;;16.70;;
66327;SDS011;53133;52.862;6.602;2022-11-21T04:51:26;28.20;;;16.43;;
66327;SDS011;53133;52.862;6.602;2022-11-21T04:53:51;28.77;;;16.03;;
66327;SDS011;53133;52.862;6.602;2022-11-21T04:56:17;29.17;;;16.43;;
66327;SDS011;53133;52.862;6.602;2022-11-21T04:58:43;29.40;;;16.60;;
66327;SDS011;53133;52.862;6.602;2022-11-21T05:01:08;29.50;;;16.97;;
66327;SDS011;53133;52.862;6.602;2022-11-21T05:03:35;27.20;;;15.53;;
66327;SDS011;53133;52.862;6.602;2022-11-21T05:06:01;29.43;;;16.53;;
66327;SDS011;53133;52.862;6.602;2022-11-21T05:08:26;30.43;;;16.60;;
66327;SDS011;53133;52.862;6.602;2022-11-21T05:10:52;29.73;;;16.87;;
66327;SDS011;53133;52.862;6.602;2022-11-21T05:13:39;28.27;;;16.40;;
66327;SDS011;53133;52.862;6.602;2022-11-21T05:16:04;29.50;;;16.30;;
66327;SDS011;53133;52.862;6.602;2022-11-21T05:18:30;30.67;;;17.47;;
66327;SDS011;53133;52.862;6.602;2022-11-21T05:20:56;29.93;;;16.70;;
66327;SDS011;53133;52.862;6.602;2022-11-21T05:23:21;32.10;;;17.80;;
66327;SDS011;53133;52.862;6.602;2022-11-21T05:25:47;29.37;;;17.50;;
66327;SDS011;53133;52.862;6.602;2022-11-21T05:28:13;34.47;;;18.23;;
66327;SDS011;53133;52.862;6.602;2022-11-21T05:30:38;33.53;;;19.43;;
66327;SDS011;53133;52.862;6.602;2022-11-21T05:33:04;33.27;;;18.37;;
66327;SDS011;53133;52.862;6.602;2022-11-21T05:35:30;35.27;;;19.27;;
66327;SDS011;53133;52.862;6.602;2022-11-21T05:37:55;31.90;;;19.23;;
66327;SDS011;53133;52.862;6.602;2022-11-21T05:40:22;35.17;;;20.33;;
66327;SDS011;53133;52.862;6.602;2022-11-21T05:42:48;33.60;;;19.53;;
66327;SDS011;53133;52.862;6.602;2022-11-21T05:45:32;35.33;;;19.87;;
66327;SDS011;53133;52.862;6.602;2022-11-21T05:47:58;35.53;;;18.67;;
66327;SDS011;53133;52.862;6.602;2022-11-21T05:50:23;29.77;;;17.47;;
66327;SDS011;53133;52.862;6.602;2022-11-21T05:52:49;33.53;;;18.00;;
66327;SDS011;53133;52.862;6.602;2022-11-21T05:55:15;31.17;;;17.60;;
66327;SDS011;53133;52.862;6.602;2022-11-21T05:57:44;32.87;;;17.23;;
66327;SDS011;53133;52.862;6.602;2022-11-21T06:00:10;34.73;;;18.07;;
66327;SDS011;53133;52.862;6.602;2022-11-21T06:02:36;34.87;;;20.53;;
66327;SDS011;53133;52.862;6.602;2022-11-21T06:05:20;42.47;;;26.50;;
66327;SDS011;53133;52.862;6.602;2022-11-21T06:07:52;40.58;;;24.80;;
66327;SDS011;53133;52.862;6.602;2022-11-21T06:10:17;37.33;;;22.53;;
66327;SDS011;53133;52.862;6.602;2022-11-21T06:12:43;36.23;;;21.47;;
66327;SDS011;53133;52.862;6.602;2022-11-21T06:15:09;37.30;;;20.50;;
66327;SDS011;53133;52.862;6.602;2022-11-21T06:17:34;39.20;;;20.77;;
66327;SDS011;53133;52.862;6.602;2022-11-21T06:20:00;37.73;;;19.57;;
66327;SDS011;53133;52.862;6.602;2022-11-21T06:22:26;29.60;;;17.70;;
66327;SDS011;53133;52.862;6.602;2022-11-21T06:24:51;36.27;;;21.20;;
66327;SDS011;53133;52.862;6.602;2022-11-21T06:27:17;35.47;;;20.53;;
66327;SDS011;53133;52.862;6.602;2022-11-21T06:29:42;33.03;;;19.47;;
66327;SDS011;53133;52.862;6.602;2022-11-21T06:32:08;34.77;;;20.17;;
66327;SDS011;53133;52.862;6.602;2022-11-21T06:34:33;33.67;;;20.53;;
66327;SDS011;53133;52.862;6.602;2022-11-21T06:36:59;39.40;;;21.00;;
66327;SDS011;53133;52.862;6.602;2022-11-21T06:39:25;36.77;;;21.00;;
66327;SDS011;53133;52.862;6.602;2022-11-21T06:41:50;35.77;;;20.43;;
66327;SDS011;53133;52.862;6.602;2022-11-21T06:44:16;38.57;;;21.60;;
66327;SDS011;53133;52.862;6.602;2022-11-21T06:46:42;37.30;;;20.57;;
66327;SDS011;53133;52.862;6.602;2022-11-21T06:49:08;37.67;;;21.47;;
66327;SDS011;53133;52.862;6.602;2022-11-21T06:51:34;35.13;;;20.73;;
66327;SDS011;53133;52.862;6.602;2022-11-21T06:53:59;34.37;;;20.13;;
66327;SDS011;53133;52.862;6.602;2022-11-21T06:56:25;35.47;;;20.00;;
66327;SDS011;53133;52.862;6.602;2022-11-21T06:58:53;35.83;;;20.73;;
66327;SDS011;53133;52.862;6.602;2022-11-21T07:01:18;38.27;;;19.77;;
66327;SDS011;53133;52.862;6.602;2022-11-21T07:03:44;37.30;;;20.00;;
66327;SDS011;53133;52.862;6.602;2022-11-21T07:06:10;35.87;;;19.53;;
66327;SDS011;53133;52.862;6.602;2022-11-21T07:08:35;37.93;;;21.03;;
66327;SDS011;53133;52.862;6.602;2022-11-21T07:11:08;33.23;;;20.63;;
66327;SDS011;53133;52.862;6.602;2022-11-21T07:13:35;37.33;;;20.60;;
66327;SDS011;53133;52.862;6.602;2022-11-21T07:16:05;44.07;;;23.10;;
66327;SDS011;53133;52.862;6.602;2022-11-21T07:18:32;48.77;;;26.47;;
66327;SDS011;53133;52.862;6.602;2022-11-21T07:20:59;46.90;;;24.43;;
66327;SDS011;53133;52.862;6.602;2022-11-21T07:23:25;41.20;;;23.13;;
66327;SDS011;53133;52.862;6.602;2022-11-21T07:25:51;38.27;;;21.80;;
66327;SDS011;53133;52.862;6.602;2022-11-21T07:28:17;40.17;;;21.77;;
66327;SDS011;53133;52.862;6.602;2022-11-21T07:30:42;38.90;;;21.33;;
66327;SDS011;53133;52.862;6.602;2022-11-21T07:33:08;36.43;;;21.27;;
66327;SDS011;53133;52.862;6.602;2022-11-21T07:35:34;39.57;;;21.90;;
66327;SDS011;53133;52.862;6.602;2022-11-21T07:38:00;38.07;;;21.77;;
66327;SDS011;53133;52.862;6.602;2022-11-21T07:40:27;37.70;;;20.93;;
66327;SDS011;53133;52.862;6.602;2022-11-21T07:42:52;33.90;;;19.93;;
66327;SDS011;53133;52.862;6.602;2022-11-21T07:45:18;38.03;;;20.70;;
66327;SDS011;53133;52.862;6.602;2022-11-21T07:47:44;35.20;;;19.57;;
66327;SDS011;53133;52.862;6.602;2022-11-21T07:50:10;38.07;;;20.37;;
66327;SDS011;53133;52.862;6.602;2022-11-21T07:52:36;36.23;;;19.67;;
66327;SDS011;53133;52.862;6.602;2022-11-21T07:55:03;34.23;;;19.33;;
66327;SDS011;53133;52.862;6.602;2022-11-21T07:57:32;36.30;;;19.23;;
66327;SDS011;53133;52.862;6.602;2022-11-21T08:00:00;38.95;;;20.60;;
66327;SDS011;53133;52.862;6.602;2022-11-21T08:02:27;35.97;;;20.67;;
66327;SDS011;53133;52.862;6.602;2022-11-21T08:04:53;35.73;;;19.77;;
66327;SDS011;53133;52.862;6.602;2022-11-21T08:07:19;33.47;;;19.03;;
66327;SDS011;53133;52.862;6.602;2022-11-21T08:09:46;34.57;;;18.57;;
66327;SDS011;53133;52.862;6.602;2022-11-21T08:12:11;35.47;;;18.97;;
66327;SDS011;53133;52.862;6.602;2022-11-21T08:14:37;37.57;;;19.77;;
66327;SDS011;53133;52.862;6.602;2022-11-21T08:17:03;33.10;;;18.57;;
66327;SDS011;53133;52.862;6.602;2022-11-21T08:19:29;36.07;;;19.87;;
66327;SDS011;53133;52.862;6.602;2022-11-21T08:21:55;38.93;;;20.77;;
66327;SDS011;53133;52.862;6.602;2022-11-21T08:24:21;41.87;;;23.23;;
66327;SDS011;53133;52.862;6.602;2022-11-21T08:26:47;36.00;;;20.43;;
66327;SDS011;53133;52.862;6.602;2022-11-21T08:29:12;37.63;;;20.50;;
66327;SDS011;53133;52.862;6.602;2022-11-21T08:31:39;35.20;;;20.10;;
66327;SDS011;53133;52.862;6.602;2022-11-21T08:34:06;39.67;;;20.30;;
66327;SDS011;53133;52.862;6.602;2022-11-21T08:36:32;37.20;;;20.50;;
66327;SDS011;53133;52.862;6.602;2022-11-21T08:38:58;41.50;;;20.50;;
66327;SDS011;53133;52.862;6.602;2022-11-21T08:41:23;37.23;;;19.93;;
66327;SDS011;53133;52.862;6.602;2022-11-21T08:44:10;37.77;;;20.80;;
66327;SDS011;53133;52.862;6.602;2022-11-21T08:46:36;37.00;;;20.50;;
66327;SDS011;53133;52.862;6.602;2022-11-21T08:49:02;38.53;;;20.83;;
66327;SDS011;53133;52.862;6.602;2022-11-21T08:51:28;39.00;;;20.33;;
66327;SDS011;53133;52.862;6.602;2022-11-21T08:53:54;36.50;;;20.03;;
66327;SDS011;53133;52.862;6.602;2022-11-21T08:56:19;37.90;;;21.40;;
66327;SDS011;53133;52.862;6.602;2022-11-21T08:58:45;33.93;;;19.83;;
66327;SDS011;53133;52.862;6.602;2022-11-21T09:01:10;39.17;;;20.53;;
66327;SDS011;53133;52.862;6.602;2022-11-21T09:03:36;35.93;;;20.63;;
66327;SDS011;53133;52.862;6.602;2022-11-21T09:06:01;40.13;;;21.90;;
66327;SDS011;53133;52.862;6.602;2022-11-21T09:08:28;39.20;;;20.37;;
66327;SDS011;53133;52.862;6.602;2022-11-21T09:10:54;40.57;;;20.47;;
66327;SDS011;53133;52.862;6.602;2022-11-21T09:13:19;42.37;;;22.20;;
66327;SDS011;53133;52.862;6.602;2022-11-21T09:15:45;43.53;;;21.57;;
66327;SDS011;53133;52.862;6.602;2022-11-21T09:18:29;42.07;;;21.07;;
66327;SDS011;53133;52.862;6.602;2022-11-21T09:20:55;40.07;;;21.00;;
66327;SDS011;53133;52.862;6.602;2022-11-21T09:23:20;38.67;;;21.60;;
66327;SDS011;53133;52.862;6.602;2022-11-21T09:25:47;56.80;;;26.93;;
66327;SDS011;53133;52.862;6.602;2022-11-21T09:28:12;64.43;;;28.10;;
66327;SDS011;53133;52.862;6.602;2022-11-21T09:30:39;40.53;;;21.03;;
66327;SDS011;53133;52.862;6.602;2022-11-21T09:33:06;49.87;;;23.53;;
66327;SDS011;53133;52.862;6.602;2022-11-21T09:35:34;37.50;;;20.80;;
66327;SDS011;53133;52.862;6.602;2022-11-21T09:38:00;37.20;;;19.90;;
66327;SDS011;53133;52.862;6.602;2022-11-21T09:40:25;36.63;;;18.70;;
66327;SDS011;53133;52.862;6.602;2022-11-21T09:45:45;32.37;;;17.00;;
66327;SDS011;53133;52.862;6.602;2022-11-21T09:48:19;33.23;;;16.47;;
66327;SDS011;53133;52.862;6.602;2022-11-21T09:50:50;34.33;;;17.23;;
66327;SDS011;53133;52.862;6.602;2022-11-21T09:53:22;30.38;;;16.25;;
66327;SDS011;53133;52.862;6.602;2022-11-21T09:55:57;30.53;;;15.97;;
66327;SDS011;53133;52.862;6.602;2022-11-21T09:58:32;30.03;;;16.37;;
66327;SDS011;53133;52.862;6.602;2022-11-21T10:01:10;31.17;;;16.40;;
66327;SDS011;53133;52.862;6.602;2022-11-21T10:03:50;30.93;;;16.50;;
66327;SDS011;53133;52.862;6.602;2022-11-21T10:06:20;32.63;;;17.17;;
66327;SDS011;53133;52.862;6.602;2022-11-21T10:08:54;32.93;;;17.93;;
66327;SDS011;53133;52.862;6.602;2022-11-21T10:14:22;31.33;;;18.03;;
66327;SDS011;53133;52.862;6.602;2022-11-21T10:17:09;29.37;;;17.00;;
66327;SDS011;53133;52.862;6.602;2022-11-21T10:22:39;30.63;;;17.17;;
66327;SDS011;53133;52.862;6.602;2022-11-21T10:25:20;31.33;;;17.97;;
66327;SDS011;53133;52.862;6.602;2022-11-21T10:27:51;39.60;;;22.87;;
66327;SDS011;53133;52.862;6.602;2022-11-21T10:30:23;36.83;;;20.50;;
66327;SDS011;53133;52.862;6.602;2022-11-21T10:35:20;40.40;;;26.53;;
66327;SDS011;53133;52.862;6.602;2022-11-21T10:37:52;48.77;;;37.07;;
66327;SDS011;53133;52.862;6.602;2022-11-21T10:40:29;139.37;;;62.87;;
66327;SDS011;53133;52.862;6.602;2022-11-21T10:43:07;93.90;;;45.13;;
66327;SDS011;53133;52.862;6.602;2022-11-21T10:45:55;67.50;;;43.90;;
66327;SDS011;53133;52.862;6.602;2022-11-21T10:48:21;99.73;;;66.43;;
66327;SDS011;53133;52.862;6.602;2022-11-21T10:53:19;53.53;;;31.15;;
66327;SDS011;53133;52.862;6.602;2022-11-21T10:56:08;39.63;;;26.27;;
66327;SDS011;53133;52.862;6.602;2022-11-21T10:58:41;58.33;;;37.63;;
66327;SDS011;53133;52.862;6.602;2022-11-21T11:01:18;73.30;;;48.40;;
66327;SDS011;53133;52.862;6.602;2022-11-21T11:04:04;30.87;;;18.03;;
66327;SDS011;53133;52.862;6.602;2022-11-21T11:06:40;30.98;;;16.40;;
66327;SDS011;53133;52.862;6.602;2022-11-21T11:14:53;28.27;;;17.03;;
66327;SDS011;53133;52.862;6.602;2022-11-21T11:17:30;32.17;;;20.30;;
66327;SDS011;53133;52.862;6.602;2022-11-21T11:20:00;28.33;;;16.57;;
66327;SDS011;53133;52.862;6.602;2022-11-21T11:22:32;29.33;;;15.50;;
66327;SDS011;53133;52.862;6.602;2022-11-21T11:24:57;24.73;;;14.83;;
66327;SDS011;53133;52.862;6.602;2022-11-21T11:27:26;27.17;;;15.17;;
66327;SDS011;53133;52.862;6.602;2022-11-21T11:29:53;193.17;;;104.93;;
66327;SDS011;53133;52.862;6.602;2022-11-21T11:32:19;155.73;;;83.67;;
66327;SDS011;53133;52.862;6.602;2022-11-21T11:35:00;151.07;;;81.83;;
66327;SDS011;53133;52.862;6.602;2022-11-21T11:37:42;179.33;;;92.27;;
66327;SDS011;53133;52.862;6.602;2022-11-21T11:40:18;119.63;;;59.10;;
66327;SDS011;53133;52.862;6.602;2022-11-21T11:46:22;79.72;;;34.60;;
66327;SDS011;53133;52.862;6.602;2022-11-21T11:49:41;57.50;;;33.57;;
66327;SDS011;53133;52.862;6.602;2022-11-21T11:52:31;35.77;;;20.27;;
66327;SDS011;53133;52.862;6.602;2022-11-21T11:55:05;66.10;;;44.15;;
66327;SDS011;53133;52.862;6.602;2022-11-21T11:57:38;38.67;;;23.60;;
66327;SDS011;53133;52.862;6.602;2022-11-21T12:02:47;35.00;;;20.90;;
66327;SDS011;53133;52.862;6.602;2022-11-21T12:05:33;43.73;;;28.37;;
66327;SDS011;53133;52.862;6.602;2022-11-21T12:08:09;41.50;;;24.97;;
66327;SDS011;53133;52.862;6.602;2022-11-21T12:10:40;37.80;;;21.67;;
66327;SDS011;53133;52.862;6.602;2022-11-21T12:13:33;37.30;;;21.80;;
66327;SDS011;53133;52.862;6.602;2022-11-21T12:16:02;37.50;;;23.47;;
66327;SDS011;53133;52.862;6.602;2022-11-21T12:18:53;49.47;;;30.50;;
66327;SDS011;53133;52.862;6.602;2022-11-21T12:21:20;54.63;;;33.47;;
66327;SDS011;53133;52.862;6.602;2022-11-21T12:23:48;43.73;;;26.60;;
66327;SDS011;53133;52.862;6.602;2022-11-21T12:29:03;37.77;;;22.07;;
66327;SDS011;53133;52.862;6.602;2022-11-21T12:31:51;52.23;;;31.87;;
66327;SDS011;53133;52.862;6.602;2022-11-21T12:34:47;66.27;;;37.63;;
66327;SDS011;53133;52.862;6.602;2022-11-21T12:37:21;51.00;;;30.03;;
66327;SDS011;53133;52.862;6.602;2022-11-21T12:43:19;38.95;;;24.55;;
66327;SDS011;53133;52.862;6.602;2022-11-21T12:51:39;31.40;;;17.70;;
66327;SDS011;53133;52.862;6.602;2022-11-21T12:57:12;42.80;;;29.93;;
66327;SDS011;53133;52.862;6.602;2022-11-21T13:02:37;64.53;;;32.67;;
66327;SDS011;53133;52.862;6.602;2022-11-21T13:05:34;54.85;;;35.22;;
66327;SDS011;53133;52.862;6.602;2022-11-21T13:10:34;41.20;;;24.92;;
66327;SDS011;53133;52.862;6.602;2022-11-21T13:16:01;34.57;;;19.83;;
66327;SDS011;53133;52.862;6.602;2022-11-21T13:18:44;34.40;;;19.00;;
66327;SDS011;53133;52.862;6.602;2022-11-21T13:21:38;38.43;;;23.97;;
66327;SDS011;53133;52.862;6.602;2022-11-21T13:24:05;37.57;;;20.33;;
66327;SDS011;53133;52.862;6.602;2022-11-21T13:29:10;30.67;;;18.10;;
66327;SDS011;53133;52.862;6.602;2022-11-21T13:31:37;30.43;;;18.07;;
66327;SDS011;53133;52.862;6.602;2022-11-21T13:34:04;28.73;;;18.27;;
66327;SDS011;53133;52.862;6.602;2022-11-21T13:36:56;27.25;;;16.38;;
66327;SDS011;53133;52.862;6.602;2022-11-21T13:39:25;26.77;;;15.83;;
66327;SDS011;53133;52.862;6.602;2022-11-21T13:44:42;26.95;;;15.23;;
66327;SDS011;53133;52.862;6.602;2022-11-21T13:55:49;32.47;;;16.77;;
66327;SDS011;53133;52.862;6.602;2022-11-21T14:06:35;31.70;;;16.60;;
66327;SDS011;53133;52.862;6.602;2022-11-21T14:12:00;34.27;;;17.37;;
66327;SDS011;53133;52.862;6.602;2022-11-21T14:19:46;31.47;;;16.03;;
66327;SDS011;53133;52.862;6.602;2022-11-21T14:22:38;43.20;;;22.90;;
66327;SDS011;53133;52.862;6.602;2022-11-21T14:25:12;96.20;;;45.23;;
66327;SDS011;53133;52.862;6.602;2022-11-21T14:27:45;114.03;;;54.38;;
66327;SDS011;53133;52.862;6.602;2022-11-21T14:30:27;115.35;;;52.63;;
66327;SDS011;53133;52.862;6.602;2022-11-21T14:32:53;104.20;;;48.70;;
66327;SDS011;53133;52.862;6.602;2022-11-21T14:35:19;72.45;;;34.08;;
66327;SDS011;53133;52.862;6.602;2022-11-21T14:37:46;67.60;;;31.13;;
66327;SDS011;53133;52.862;6.602;2022-11-21T14:40:14;58.27;;;28.13;;
66327;SDS011;53133;52.862;6.602;2022-11-21T14:42:45;85.30;;;37.50;;
66327;SDS011;53133;52.862;6.602;2022-11-21T14:47:49;50.33;;;24.00;;
66327;SDS011;53133;52.862;6.602;2022-11-21T14:50:22;48.13;;;22.75;;
66327;SDS011;53133;52.862;6.602;2022-11-21T14:52:49;52.03;;;24.40;;
66327;SDS011;53133;52.862;6.602;2022-11-21T14:55:23;48.38;;;25.13;;
66327;SDS011;53133;52.862;6.602;2022-11-21T14:57:53;53.13;;;26.67;;
66327;SDS011;53133;52.862;6.602;2022-11-21T15:00:21;93.22;;;41.03;;
66327;SDS011;53133;52.862;6.602;2022-11-21T15:02:50;191.57;;;75.10;;
66327;SDS011;53133;52.862;6.602;2022-11-21T15:05:19;97.18;;;43.78;;
66327;SDS011;53133;52.862;6.602;2022-11-21T15:07:47;110.27;;;51.67;;
66327;SDS011;53133;52.862;6.602;2022-11-21T15:10:13;51.10;;;23.57;;
66327;SDS011;53133;52.862;6.602;2022-11-21T15:15:22;129.23;;;72.35;;
66327;SDS011;53133;52.862;6.602;2022-11-21T15:17:51;61.90;;;26.73;;
66327;SDS011;53133;52.862;6.602;2022-11-21T15:20:21;70.97;;;34.90;;
66327;SDS011;53133;52.862;6.602;2022-11-21T15:22:48;108.13;;;52.63;;
66327;SDS011;53133;52.862;6.602;2022-11-21T15:25:20;74.53;;;33.88;;
66327;SDS011;53133;52.862;6.602;2022-11-21T15:27:50;172.20;;;68.40;;
66327;SDS011;53133;52.862;6.602;2022-11-21T15:30:30;98.07;;;43.50;;
66327;SDS011;53133;52.862;6.602;2022-11-21T15:38:00;104.70;;;43.13;;
66327;SDS011;53133;52.862;6.602;2022-11-21T15:40:25;107.20;;;43.97;;
66327;SDS011;53133;52.862;6.602;2022-11-21T15:42:51;192.88;;;76.47;;
66327;SDS011;53133;52.862;6.602;2022-11-21T15:45:24;175.00;;;69.10;;
66327;SDS011;53133;52.862;6.602;2022-11-21T15:47:50;137.07;;;61.07;;
66327;SDS011;53133;52.862;6.602;2022-11-21T15:50:16;70.45;;;26.73;;
66327;SDS011;53133;52.862;6.602;2022-11-21T15:52:46;87.50;;;33.08;;
66327;SDS011;53133;52.862;6.602;2022-11-21T15:55:17;165.90;;;70.55;;
66327;SDS011;53133;52.862;6.602;2022-11-21T15:57:49;161.90;;;71.07;;
66327;SDS011;53133;52.862;6.602;2022-11-21T16:00:14;98.43;;;39.42;;
66327;SDS011;53133;52.862;6.602;2022-11-21T16:02:41;154.93;;;64.77;;
66327;SDS011;53133;52.862;6.602;2022-11-21T16:05:09;154.90;;;64.40;;
66327;SDS011;53133;52.862;6.602;2022-11-21T16:07:39;143.37;;;62.57;;
66327;SDS011;53133;52.862;6.602;2022-11-21T16:10:05;127.93;;;49.53;;
66327;SDS011;53133;52.862;6.602;2022-11-21T16:12:31;197.43;;;81.50;;